Aeroporto :
LOGIN :

Iscrizione | Disclaimer

   EN    FR    IT 

 










Sommario :    VFR   VFR Marginale   IFR   IFR Intensivo   IFR Molto Intensivo
Visibilità : 
Base nubi : 
>= 8 km
>= 3000ft
5 / 8 km
1000 / 3000 ft
1500m / 5 km
500 / 1000 ft
800 / 1500m
200 / 500 ft
< 800m
< 200 ft
Simboli :   Temporali  Nebbia  Neve Forte  Precipitazioni Forti  Vento > 20 kt
SIGMETs :   Varie  Temporali  Ghiacco  Turbolenza  Onda orograficha  Ceneri Vulcaniche






- Altitudine del aeroporto : -15 ft
- Codice IATA : RTM


EHRD - Rotterdam Zestienhoven

ULTIMO METAR :
  • 230125Z AUTO 09011KT 070V130 9000 NSC 05/03 Q0998 NOSIG

METARs OBSOLETI :
  • 230055Z AUTO 10012KT 060V130 9000 NSC 05/03 Q0998 NOSIG
  • 230025Z AUTO 11010KT 080V150 9000 NSC 05/03 Q0999 NOSIG
  • 222355Z AUTO 11010KT 070V150 9000 NSC 05/03 Q0999 NOSIG
  • 222325Z AUTO 10011KT 070V130 9000 NSC 05/04 Q0999 NOSIG
  • 222255Z AUTO 11012KT 060V150 9000 FEW031 05/04 Q0999 NOSIG

TAF TAF EHRD
Valido dal 23 a 00 ore il 24 a 06 ore UTC


222310Z 2300/2406 10010KT CAVOK
PROB30 2403/2406 4000 MIFG BR



MetMap, La meteo Aeronautica in un colpo d'occhio ! - Copyright ORBIFLY Dicembre 2007 - Disclaimer

ORBIFLY MET'MAP TEAM :

Programmazione e sviluppo : Alexandra Zaïnal
Concezione e sviluppo : Baudouin d'Aumeries
Co-Programmazione e sviluppo : Marc-Olivier Méhu
Supporto tecnico e logistico : Manuel Goepfert
Aiuto per la traduzione : Arnaldo La Scala

Contatto : metmap@orbifly.com




FONTI E CREDITI :

   NOAA